Terminal Aerodrome Forecast
Issued by NWS El Paso, TX

Home | Current Version | Previous Version | Text Only | Print | Product List | Glossary On
Versions: 1 2 3 4 5 6 7 8 9 10 11 12 13 14 15
000
FTUS44 KEPZ 021700
TAFELP
TAF
KELP 021722Z 0218/0318 26012G18KT P6SM FEW150
     FM030200 26010KT P6SM SKC
     FM031700 26014G20KT P6SM FEW120=

USA.gov is the U.S. government's official web portal to all federal, state and local government web resources and services.